Time;durP1;ratioP1;P1;durP2;ratioP2;P2;SDS_P1;SDS_P2;PMS_P1;PMS_P2;Temp;Humidity;BMP_temperature;BMP_pressure;BME280_temperature;BME280_humidity;BME280_pressure;Samples;Min_cycle;Max_cycle;Signal;HPM_P1;HPM_P2
2020/12/24 00:00:44;;;;;;;1999.90;999.90;;;12.80;99.90;;;;;;5002909;28;20231;-79
2020/12/24 00:03:11;;;;;;;1999.90;999.90;;;12.80;99.90;;;;;;5010524;28;20254;-79
2020/12/24 00:05:39;;;;;;;1999.90;999.90;;;12.80;99.90;;;;;;5010358;28;20210;-79
2020/12/24 00:08:06;;;;;;;1999.90;999.90;;;12.80;99.90;;;;;;5010909;28;20207;-79
2020/12/24 00:10:33;;;;;;;1999.90;999.90;;;12.80;99.90;;;;;;5005321;28;20228;-78
2020/12/24 00:13:01;;;;;;;1999.90;999.90;;;12.70;99.90;;;;;;5008403;28;20207;-79
2020/12/24 00:15:28;;;;;;;1999.90;999.90;;;12.70;99.90;;;;;;5008992;28;20208;-78
2020/12/24 00:17:54;;;;;;;1999.90;999.90;;;12.70;99.90;;;;;;5000487;28;20238;-79
2020/12/24 00:20:21;;;;;;;1999.90;999.90;;;12.70;99.90;;;;;;5002817;28;20625;-78
2020/12/24 00:22:49;;;;;;;1999.90;999.90;;;12.70;99.90;;;;;;4996861;28;20208;-79
2020/12/24 00:25:16;;;;;;;1999.90;999.90;;;12.60;99.90;;;;;;4995934;28;20207;-79
2020/12/24 00:27:43;;;;;;;1999.90;999.90;;;12.60;99.90;;;;;;4995097;28;20254;-79
2020/12/24 00:30:12;;;;;;;1999.90;999.90;;;12.60;99.90;;;;;;4995098;28;20227;-79
2020/12/24 00:32:39;;;;;;;1999.90;999.90;;;12.60;99.90;;;;;;4995335;28;20553;-79
2020/12/24 00:35:06;;;;;;;1999.90;999.90;;;12.50;99.90;;;;;;4995308;28;20254;-79
2020/12/24 00:37:33;;;;;;;1999.90;999.90;;;12.50;99.90;;;;;;4994698;28;20200;-79
2020/12/24 00:40:01;;;;;;;1999.90;999.90;;;12.50;99.90;;;;;;4994997;28;20254;-79
2020/12/24 00:42:28;;;;;;;1999.90;999.90;;;12.50;99.90;;;;;;4995171;28;20632;-80
2020/12/24 00:44:54;;;;;;;1999.90;999.90;;;12.50;99.90;;;;;;4995194;28;20208;-78
2020/12/24 00:47:21;;;;;;;1999.90;999.90;;;12.50;99.90;;;;;;4995189;28;20239;-79
2020/12/24 00:49:48;;;;;;;1999.90;999.90;;;12.50;99.90;;;;;;4994785;28;20263;-79
2020/12/24 00:52:15;;;;;;;1999.90;999.90;;;12.50;99.90;;;;;;4994546;28;20228;-79
2020/12/24 00:54:42;;;;;;;1999.90;999.90;;;12.50;99.90;;;;;;4994961;28;20211;-80
2020/12/24 00:57:10;;;;;;;1999.90;999.90;;;12.50;99.90;;;;;;4994751;28;20212;-79
2020/12/24 00:59:37;;;;;;;1999.90;999.90;;;12.90;99.90;;;;;;4994678;28;20200;-80
2020/12/24 01:02:04;;;;;;;1999.90;999.90;;;12.50;99.90;;;;;;4994539;28;20282;-79
2020/12/24 01:04:31;;;;;;;1999.90;999.90;;;12.50;99.90;;;;;;4994825;28;20550;-80
2020/12/24 01:06:58;;;;;;;1999.90;999.90;;;12.50;99.90;;;;;;4994875;28;20235;-79
2020/12/24 01:09:24;;;;;;;1999.90;999.90;;;12.50;99.90;;;;;;4994420;28;20262;-80
2020/12/24 01:11:51;;;;;;;1999.90;999.90;;;12.50;99.90;;;;;;4994544;28;20644;-79
2020/12/24 01:14:19;;;;;;;1999.90;999.90;;;12.50;99.90;;;;;;4994696;28;20234;-79
2020/12/24 01:16:46;;;;;;;1999.90;999.90;;;12.50;99.90;;;;;;4994546;28;20204;-79
2020/12/24 01:19:13;;;;;;;1999.90;999.90;;;12.40;99.90;;;;;;4994804;28;20203;-79
2020/12/24 01:21:45;;;;;;;1999.90;999.90;;;12.40;99.90;;;;;;4994128;28;20224;-78
2020/12/24 01:24:12;;;;;;;1999.90;999.90;;;12.40;99.90;;;;;;4993980;28;20251;-79
2020/12/24 01:26:45;;;;;;;1999.90;999.90;;;12.40;99.90;;;;;;4994218;28;20559;-79
2020/12/24 01:29:12;;;;;;;1999.90;999.90;;;12.40;99.90;;;;;;4993808;28;20612;-79
2020/12/24 01:31:45;;;;;;;1999.90;999.90;;;12.40;99.90;;;;;;4994055;28;20228;-79
2020/12/24 01:34:12;;;;;;;1999.90;999.90;;;12.30;99.90;;;;;;4994252;28;20204;-79
2020/12/24 01:36:39;;;;;;;1999.90;999.90;;;12.40;99.90;;;;;;4993870;28;20239;-79
2020/12/24 01:39:06;;;;;;;1999.90;999.90;;;12.40;99.90;;;;;;4994096;28;20207;-80
2020/12/24 01:41:33;;;;;;;1999.90;999.90;;;12.40;99.90;;;;;;4994305;28;20224;-79
2020/12/24 01:44:00;;;;;;;1999.90;999.90;;;12.40;99.90;;;;;;4994275;28;20203;-79
2020/12/24 01:46:27;;;;;;;1999.90;999.90;;;12.40;99.90;;;;;;4994058;28;20204;-79
2020/12/24 01:48:55;;;;;;;1999.90;999.90;;;12.40;99.90;;;;;;4993771;28;20208;-79
2020/12/24 01:51:26;;;;;;;1999.90;999.90;;;12.40;99.90;;;;;;4994436;28;20255;-79
2020/12/24 01:53:54;;;;;;;1999.90;999.90;;;12.40;99.90;;;;;;4994316;28;20204;-79
2020/12/24 01:56:22;;;;;;;1999.90;999.90;;;12.40;99.90;;;;;;4993756;28;20203;-80
2020/12/24 01:59:00;;;;;;;1999.90;999.90;;;12.40;99.90;;;;;;4994033;28;20203;-80
2020/12/24 02:01:27;;;;;;;1999.90;999.90;;;12.40;99.90;;;;;;4994555;28;20231;-79
2020/12/24 02:03:54;;;;;;;1999.90;999.90;;;12.50;99.90;;;;;;4994189;28;20208;-79
2020/12/24 02:06:21;;;;;;;1999.90;999.90;;;12.40;99.90;;;;;;4993979;28;20331;-79
2020/12/24 02:08:57;;;;;;;1999.90;999.90;;;12.40;99.90;;;;;;4993372;28;20261;-79
2020/12/24 02:11:24;;;;;;;1999.90;999.90;;;12.40;99.90;;;;;;4993196;28;20331;-79
2020/12/24 02:13:50;;;;;;;1999.90;999.90;;;12.40;99.90;;;;;;4992929;28;20212;-78
2020/12/24 02:16:17;;;;;;;1999.90;999.90;;;12.40;99.90;;;;;;4993066;28;20203;-79
2020/12/24 02:18:44;;;;;;;1999.90;999.90;;;12.40;99.90;;;;;;4992769;28;20239;-79
2020/12/24 02:21:12;;;;;;;1999.90;999.90;;;12.40;99.90;;;;;;4993473;28;20232;-78
2020/12/24 02:23:39;;;;;;;1999.90;999.90;;;12.40;99.90;;;;;;4993887;28;20204;-78
2020/12/24 02:26:06;;;;;;;1999.90;999.90;;;12.30;99.90;;;;;;4994179;28;20254;-80
2020/12/24 02:28:33;;;;;;;1999.90;999.90;;;12.30;99.90;;;;;;4994207;28;20640;-80
2020/12/24 02:31:01;;;;;;;1999.90;999.90;;;12.40;99.90;;;;;;4993849;28;20232;-80
2020/12/24 02:33:28;;;;;;;1999.90;999.90;;;12.30;99.90;;;;;;4994086;28;20208;-80
2020/12/24 02:35:55;;;;;;;1999.90;999.90;;;12.40;99.90;;;;;;4993752;28;20207;-80
2020/12/24 02:38:23;;;;;;;1999.90;999.90;;;12.40;99.90;;;;;;4993797;28;20254;-80
2020/12/24 02:40:50;;;;;;;1999.90;999.90;;;12.40;99.90;;;;;;4993744;28;20220;-80
2020/12/24 02:43:17;;;;;;;1999.90;999.90;;;12.40;99.90;;;;;;4993708;28;20266;-80
2020/12/24 02:45:43;;;;;;;1999.90;999.90;;;12.50;99.90;;;;;;4993741;28;20211;-79
2020/12/24 02:48:10;;;;;;;1999.90;999.90;;;12.50;99.90;;;;;;4993600;28;20206;-80
2020/12/24 02:50:37;;;;;;;1999.90;999.90;;;12.50;99.90;;;;;;4993449;28;20235;-78
2020/12/24 02:53:04;;;;;;;1999.90;999.90;;;12.40;99.90;;;;;;4993880;28;20216;-78
2020/12/24 02:55:32;;;;;;;1999.90;999.90;;;12.40;99.90;;;;;;4993762;28;20207;-80
2020/12/24 02:57:59;;;;;;;1999.90;999.90;;;12.40;99.90;;;;;;4993185;28;20230;-80
2020/12/24 03:00:26;;;;;;;1999.90;999.90;;;12.40;99.90;;;;;;4994116;28;20728;-80
2020/12/24 03:02:53;;;;;;;1999.90;999.90;;;12.40;99.90;;;;;;4997411;28;20207;-79
2020/12/24 03:05:20;;;;;;;1999.90;999.90;;;12.50;99.90;;;;;;4997111;28;20250;-79
2020/12/24 03:07:49;;;;;;;1999.90;999.90;;;12.40;99.90;;;;;;4996891;28;20204;-79
2020/12/24 03:10:16;;;;;;;1999.90;999.90;;;12.40;99.90;;;;;;4996679;28;20235;-79
2020/12/24 03:12:44;;;;;;;1999.90;999.90;;;12.40;99.90;;;;;;4996901;28;20540;-79
2020/12/24 03:15:12;;;;;;;1999.90;999.90;;;12.40;99.90;;;;;;4996995;28;20208;-79
2020/12/24 03:17:39;;;;;;;1999.90;999.90;;;12.30;99.90;;;;;;4996988;28;20282;-80
2020/12/24 03:20:15;;;;;;;1999.90;999.90;;;12.40;99.90;;;;;;4996835;28;20200;-79
2020/12/24 03:22:42;;;;;;;1999.90;999.90;;;12.40;99.90;;;;;;4996832;28;20204;-78
2020/12/24 03:25:09;;;;;;;1999.90;999.90;;;12.40;99.90;;;;;;4996670;28;20254;-79
2020/12/24 03:27:36;;;;;;;1999.90;999.90;;;12.40;99.90;;;;;;4996932;28;20617;-79
2020/12/24 03:30:05;;;;;;;1999.90;999.90;;;12.40;99.90;;;;;;4996947;28;20259;-78
2020/12/24 03:32:33;;;;;;;1999.90;999.90;;;12.30;99.90;;;;;;4997175;28;20220;-81
2020/12/24 03:35:00;;;;;;;1999.90;999.90;;;12.30;99.90;;;;;;4996965;28;20251;-79
2020/12/24 03:37:27;;;;;;;1999.90;999.90;;;12.40;99.90;;;;;;4997214;28;20254;-78
2020/12/24 03:39:54;;;;;;;1999.90;999.90;;;12.40;99.90;;;;;;4996822;28;20211;-81
2020/12/24 03:42:21;;;;;;;1999.90;999.90;;;12.40;99.90;;;;;;4996708;28;20216;-80
2020/12/24 03:44:48;;;;;;;1999.90;999.90;;;12.30;99.90;;;;;;4996932;28;20208;-81
2020/12/24 03:47:15;;;;;;;1999.90;999.90;;;12.30;99.90;;;;;;4996926;28;20212;-80
2020/12/24 03:49:42;;;;;;;1999.90;999.90;;;12.30;99.90;;;;;;4997112;28;20332;-79
2020/12/24 03:52:09;;;;;;;1999.90;999.90;;;12.40;99.90;;;;;;4996295;28;20236;-78
2020/12/24 03:54:36;;;;;;;1999.90;999.90;;;12.50;99.90;;;;;;4997004;28;20211;-79
2020/12/24 03:57:03;;;;;;;1999.90;999.90;;;12.50;99.90;;;;;;4997168;28;20239;-80
2020/12/24 03:59:31;;;;;;;1999.90;999.90;;;12.40;99.90;;;;;;4996721;28;20203;-81
2020/12/24 04:01:57;;;;;;;1999.90;999.90;;;12.40;99.90;;;;;;4997218;28;20228;-81
2020/12/24 04:04:25;;;;;;;1999.90;999.90;;;12.40;99.90;;;;;;4997457;28;20235;-81
2020/12/24 04:06:52;;;;;;;1999.90;999.90;;;12.40;99.90;;;;;;4997197;28;20203;-80
2020/12/24 04:09:19;;;;;;;1999.90;999.90;;;12.40;99.90;;;;;;4996218;28;20200;-81
2020/12/24 04:11:46;;;;;;;1999.90;999.90;;;12.40;99.90;;;;;;4996410;28;20227;-80
2020/12/24 04:14:12;;;;;;;1999.90;999.90;;;12.40;99.90;;;;;;4996228;28;20585;-81
2020/12/24 04:16:39;;;;;;;1999.90;999.90;;;12.40;99.90;;;;;;4995892;28;20732;-79
2020/12/24 04:19:06;;;;;;;1999.90;999.90;;;12.40;99.90;;;;;;4995720;28;20553;-81
2020/12/24 04:21:34;;;;;;;1999.90;999.90;;;12.40;99.90;;;;;;4996194;28;20282;-80
2020/12/24 04:24:01;;;;;;;1999.90;999.90;;;12.40;99.90;;;;;;4995930;28;20204;-79
2020/12/24 04:26:28;;;;;;;1999.90;999.90;;;12.40;99.90;;;;;;4996184;28;20262;-80
2020/12/24 04:28:54;;;;;;;1999.90;999.90;;;12.40;99.90;;;;;;4995983;28;20208;-80
2020/12/24 04:31:21;;;;;;;1999.90;999.90;;;12.50;99.90;;;;;;4995945;28;20270;-80
2020/12/24 04:33:48;;;;;;;1999.90;999.90;;;12.40;99.90;;;;;;4995220;28;20262;-80
2020/12/24 04:36:16;;;;;;;1999.90;999.90;;;12.40;99.90;;;;;;4995365;28;20258;-81
2020/12/24 04:38:44;;;;;;;1999.90;999.90;;;12.40;99.90;;;;;;4994574;28;20666;-80
2020/12/24 04:41:11;;;;;;;1999.90;999.90;;;12.40;99.90;;;;;;4995548;28;20220;-80
2020/12/24 04:43:39;;;;;;;1999.90;999.90;;;12.40;99.90;;;;;;4995403;28;20211;-80
2020/12/24 04:46:07;;;;;;;1999.90;999.90;;;12.40;99.90;;;;;;4995147;28;20214;-80
2020/12/24 04:48:34;;;;;;;1999.90;999.90;;;12.40;99.90;;;;;;4994497;28;20207;-80
2020/12/24 04:51:17;;;;;;;1999.90;999.90;;;12.50;99.90;;;;;;4994956;28;20224;-80
2020/12/24 04:53:45;;;;;;;1999.90;999.90;;;12.50;99.90;;;;;;4994690;28;20199;-80
2020/12/24 04:56:12;;;;;;;1999.90;999.90;;;12.50;99.90;;;;;;4994984;28;20227;-80
2020/12/24 04:58:42;;;;;;;1999.90;999.90;;;12.60;99.90;;;;;;4994797;28;20204;-80
2020/12/24 05:01:13;;;;;;;1999.90;999.90;;;12.60;99.90;;;;;;4994495;28;20721;-79
2020/12/24 05:03:42;;;;;;;1999.90;999.90;;;12.70;99.90;;;;;;4995849;28;20232;-80
2020/12/24 05:06:16;;;;;;;1999.90;999.90;;;12.80;99.90;;;;;;4995799;28;20211;-81
2020/12/24 05:08:54;;;;;;;1999.90;999.90;;;12.60;99.90;;;;;;4995852;28;20207;-81
2020/12/24 05:11:25;;;;;;;1999.90;999.90;;;12.50;99.90;;;;;;4995786;28;20223;-80
2020/12/24 05:13:52;;;;;;;1999.90;999.90;;;12.50;99.90;;;;;;4996997;28;20199;-81
2020/12/24 05:16:19;;;;;;;1999.90;999.90;;;12.40;99.90;;;;;;5006668;28;20204;-81
2020/12/24 05:18:46;;;;;;;1999.90;999.90;;;12.40;99.90;;;;;;5003124;28;20591;-80
2020/12/24 05:21:30;;;;;;;1999.90;999.90;;;12.30;99.90;;;;;;4999765;28;20278;-80
2020/12/24 05:23:57;;;;;;;1999.90;999.90;;;12.30;99.90;;;;;;4997060;28;20262;-80
2020/12/24 05:26:25;;;;;;;1999.90;999.90;;;12.30;99.90;;;;;;5001309;28;20208;-80
2020/12/24 05:28:52;;;;;;;1999.90;999.90;;;12.20;99.90;;;;;;5001343;28;20200;-80
2020/12/24 05:31:32;;;;;;;1999.90;999.90;;;12.20;99.90;;;;;;5002950;28;20656;-79
2020/12/24 05:33:59;;;;;;;1999.90;999.90;;;12.20;99.90;;;;;;5001518;28;20262;-79
2020/12/24 05:36:25;;;;;;;1999.90;999.90;;;12.20;99.90;;;;;;4995720;28;20822;-79
2020/12/24 05:38:53;;;;;;;1999.90;999.90;;;12.10;99.90;;;;;;4994090;28;20204;-79
2020/12/24 05:41:29;;;;;;;1999.90;999.90;;;12.10;99.90;;;;;;4994336;28;20223;-79
2020/12/24 05:43:57;;;;;;;1999.90;999.90;;;12.10;99.90;;;;;;4994454;28;20211;-78
2020/12/24 05:46:26;;;;;;;1999.90;999.90;;;12.00;99.90;;;;;;4987818;28;20692;-78
2020/12/24 05:48:53;;;;;;;1999.90;999.90;;;12.00;99.90;;;;;;4993675;28;20204;-79
2020/12/24 05:51:20;;;;;;;1999.90;999.90;;;12.00;99.90;;;;;;4993867;28;20232;-79
2020/12/24 05:53:47;;;;;;;1999.90;999.90;;;12.00;99.90;;;;;;4994088;28;20204;-78
2020/12/24 05:56:21;;;;;;;1999.90;999.90;;;12.10;99.90;;;;;;4994104;28;20208;-78
2020/12/24 05:58:51;;;;;;;1999.90;999.90;;;12.00;99.90;;;;;;4994003;28;20203;-78
2020/12/24 06:01:18;;;;;;;1999.90;999.90;;;12.00;99.90;;;;;;4993470;28;20235;-78
2020/12/24 06:04:01;;;;;;;1999.90;999.90;;;11.90;99.90;;;;;;4993444;28;20216;-78
2020/12/24 06:06:47;;;;;;;1999.90;999.90;;;11.70;99.90;;;;;;4992877;28;20281;-78
2020/12/24 06:09:18;;;;;;;1999.90;999.90;;;11.60;99.90;;;;;;4994117;28;20653;-79
2020/12/24 06:11:49;;;;;;;1999.90;999.90;;;11.40;99.90;;;;;;4993899;28;20236;-79
2020/12/24 06:14:30;;;;;;;1999.90;999.90;;;11.30;99.90;;;;;;4993970;28;20216;-79
2020/12/24 06:17:03;;;;;;;1999.90;999.90;;;10.90;99.90;;;;;;4993275;28;20203;-79
2020/12/24 06:19:35;;;;;;;1999.90;999.90;;;10.50;99.90;;;;;;4993193;28;20204;-78
2020/12/24 06:22:12;;;;;;;1999.90;999.90;;;10.10;99.90;;;;;;4994206;28;20220;-78
2020/12/24 06:24:41;;;;;;;1999.90;999.90;;;9.40;99.90;;;;;;4994155;28;20626;-79
2020/12/24 06:27:14;;;;;;;1999.90;999.90;;;9.00;99.90;;;;;;4992968;28;20274;-79
2020/12/24 06:29:45;;;;;;;1999.90;999.90;;;8.70;99.90;;;;;;4992876;28;20207;-79
2020/12/24 06:32:13;;;;;;;1999.90;999.90;;;8.60;99.90;;;;;;4993041;28;20689;-79
2020/12/24 06:34:41;;;;;;;1999.90;999.90;;;8.60;99.90;;;;;;4993616;28;20274;-77
2020/12/24 06:37:19;;;;;;;1999.90;999.90;;;8.50;99.90;;;;;;4997793;28;20628;-77
2020/12/24 06:39:48;;;;;;;1999.90;999.90;;;8.50;99.90;;;;;;4998715;28;20549;-79
2020/12/24 06:42:46;;;;;;;1999.90;999.90;;;8.50;99.90;;;;;;4997660;28;20228;-78
2020/12/24 06:45:32;;;;;;;1999.90;999.90;;;8.40;99.90;;;;;;4997754;28;20200;-77
2020/12/24 06:48:22;;;;;;;1999.90;999.90;;;8.40;99.90;;;;;;4997117;28;21008;-79
2020/12/24 06:50:51;;;;;;;1999.90;999.90;;;8.50;99.90;;;;;;4997316;28;20220;-80
2020/12/24 06:53:28;;;;;;;1999.90;999.90;;;8.50;99.90;;;;;;4996272;28;20447;-77
2020/12/24 06:56:17;;;;;;;1999.90;999.90;;;8.50;99.90;;;;;;4997857;28;20273;-77
2020/12/24 06:58:45;;;;;;;1999.90;999.90;;;8.50;99.90;;;;;;4997467;28;20200;-78
2020/12/24 07:01:19;;;;;;;1999.90;999.90;;;8.50;99.90;;;;;;4997596;28;20220;-81
2020/12/24 07:03:47;;;;;;;1999.90;999.90;;;8.50;99.90;;;;;;4996061;28;20270;-79
2020/12/24 07:06:14;;;;;;;1999.90;999.90;;;8.50;99.90;;;;;;4997267;28;20608;-76
2020/12/24 07:08:50;;;;;;;1999.90;999.90;;;8.50;99.90;;;;;;4991521;28;20200;-77
2020/12/24 07:11:42;;;;;;;1999.90;999.90;;;8.40;99.90;;;;;;4994878;28;20215;-78
2020/12/24 07:14:25;;;;;;;1999.90;999.90;;;8.40;99.90;;;;;;4992789;28;20740;-81
2020/12/24 07:16:55;;;;;;;1999.90;999.90;;;8.40;99.90;;;;;;4995214;28;20203;-80
2020/12/24 07:19:23;;;;;;;1999.90;999.90;;;8.40;99.90;;;;;;4999665;28;20204;-81
2020/12/24 07:21:51;;;;;;;1999.90;999.90;;;8.40;99.90;;;;;;4997460;28;20270;-80
2020/12/24 07:24:26;;;;;;;1999.90;999.90;;;8.40;99.90;;;;;;4995408;28;20608;-80
2020/12/24 07:26:56;;;;;;;1999.90;999.90;;;8.40;99.90;;;;;;4993250;28;20199;-80
2020/12/24 07:29:23;;;;;;;1999.90;999.90;;;8.40;99.90;;;;;;4992720;28;20577;-80
2020/12/24 07:31:51;;;;;;;1999.90;999.90;;;8.30;99.90;;;;;;4996804;28;20224;-79
2020/12/24 07:34:25;;;;;;;1999.90;999.90;;;8.40;99.90;;;;;;4996724;28;20204;-78
2020/12/24 07:36:52;;;;;;;1999.90;999.90;;;8.40;99.90;;;;;;4997785;28;20628;-78
2020/12/24 07:39:20;;;;;;;1999.90;999.90;;;8.30;99.90;;;;;;4996745;28;20208;-78
2020/12/24 07:41:47;;;;;;;1999.90;999.90;;;8.30;99.90;;;;;;4996140;28;20219;-80
2020/12/24 07:44:16;;;;;;;1999.90;999.90;;;8.30;99.90;;;;;;4995138;28;20214;-78
2020/12/24 07:46:43;;;;;;;1999.90;999.90;;;8.30;99.90;;;;;;4995436;28;20256;-78
2020/12/24 07:49:10;;;;;;;1999.90;999.90;;;8.30;99.90;;;;;;4995027;28;20215;-78
2020/12/24 07:51:38;;;;;;;1999.90;999.90;;;8.30;99.90;;;;;;5005729;28;20277;-78
2020/12/24 07:54:08;;;;;;;1999.90;999.90;;;8.30;99.90;;;;;;4998959;28;20242;-78
2020/12/24 07:56:36;;;;;;;1999.90;999.90;;;8.30;99.90;;;;;;5002912;28;20218;-79
2020/12/24 07:59:04;;;;;;;1999.90;999.90;;;8.40;99.90;;;;;;4995187;28;20211;-78
2020/12/24 08:01:31;;;;;;;1999.90;999.90;;;8.40;99.90;;;;;;4995240;28;20236;-77
2020/12/24 08:04:03;;;;;;;1999.90;999.90;;;8.40;99.90;;;;;;5012604;28;20676;-79
2020/12/24 08:06:30;;;;;;;1999.90;999.90;;;8.40;99.90;;;;;;5014862;28;20262;-77
2020/12/24 08:09:09;;;;;;;1999.90;999.90;;;8.30;99.90;;;;;;4995490;28;20196;-79
2020/12/24 08:11:36;;;;;;;1999.90;999.90;;;8.40;99.90;;;;;;4994799;28;20281;-78
2020/12/24 08:14:03;;;;;;;1999.90;999.90;;;8.40;99.90;;;;;;4997640;28;20203;-79
2020/12/24 08:16:32;;;;;;;1999.90;999.90;;;8.40;99.90;;;;;;5014957;28;20254;-78
2020/12/24 08:19:08;;;;;;;1999.90;999.90;;;8.40;99.90;;;;;;5014688;28;20211;-77
2020/12/24 08:21:45;;;;;;;1999.90;999.90;;;8.50;99.90;;;;;;5014935;28;20223;-79
2020/12/24 08:24:13;;;;;;;1999.90;999.90;;;8.50;99.90;;;;;;5015002;28;20515;-81
2020/12/24 08:26:41;;;;;;;1999.90;999.90;;;8.50;99.90;;;;;;5014422;28;20688;-81
2020/12/24 08:29:08;;;;;;;1999.90;999.90;;;8.60;99.90;;;;;;5014295;28;20207;-80
2020/12/24 08:31:39;;;;;;;1999.90;999.90;;;8.60;99.90;;;;;;5014332;28;20231;-78
2020/12/24 08:34:08;;;;;;;1999.90;999.90;;;8.70;99.90;;;;;;5005669;28;20734;-80
2020/12/24 08:36:42;;;;;;;1999.90;999.90;;;8.80;99.90;;;;;;5009686;28;20250;-79
2020/12/24 08:39:10;;;;;;;1999.90;999.90;;;8.80;99.90;;;;;;5014410;28;20198;-80
2020/12/24 08:41:41;;;;;;;1999.90;999.90;;;8.90;99.90;;;;;;5008236;28;20763;-80
2020/12/24 08:44:08;;;;;;;1999.90;999.90;;;9.00;99.90;;;;;;5011180;28;20211;-79
2020/12/24 08:46:35;;;;;;;1999.90;999.90;;;9.00;99.90;;;;;;5005264;28;20242;-79
2020/12/24 08:49:19;;;;;;;1999.90;999.90;;;9.00;99.90;;;;;;5014795;28;20215;-79
2020/12/24 08:51:46;;;;;;;1999.90;999.90;;;9.10;99.90;;;;;;5013207;28;20702;-79
2020/12/24 08:54:14;;;;;;;1999.90;999.90;;;9.10;99.90;;;;;;5011566;28;20207;-80
2020/12/24 08:56:43;;;;;;;1999.90;999.90;;;9.20;99.90;;;;;;4994811;28;20243;-81
2020/12/24 08:59:13;;;;;;;1999.90;999.90;;;9.20;99.90;;;;;;4994651;28;20619;-79
2020/12/24 09:01:42;;;;;;;1999.90;999.90;;;9.30;99.90;;;;;;4994313;28;20290;-78
2020/12/24 09:04:15;;;;;;;1999.90;999.90;;;9.30;99.90;;;;;;5002637;28;20265;-80
2020/12/24 09:06:43;;;;;;;1999.90;999.90;;;9.40;99.90;;;;;;4994847;28;20608;-80
2020/12/24 09:09:19;;;;;;;1999.90;999.90;;;9.40;99.90;;;;;;4993161;28;20254;-81
2020/12/24 09:11:47;;;;;;;1999.90;999.90;;;9.40;99.90;;;;;;4991187;28;20255;-80
2020/12/24 09:14:19;;;;;;;1999.90;999.90;;;9.50;99.90;;;;;;4995059;28;20200;-82
2020/12/24 09:16:54;;;;;;;1999.90;999.90;;;9.60;99.90;;;;;;4994878;28;20200;-82
2020/12/24 09:19:21;;;;;;;1999.90;999.90;;;9.70;99.90;;;;;;4994349;28;20208;-81
2020/12/24 09:21:52;;;;;;;1999.90;999.90;;;9.80;99.90;;;;;;4994122;28;20259;-81
2020/12/24 09:24:20;;;;;;;1999.90;999.90;;;9.80;99.90;;;;;;4994988;28;20359;-80
2020/12/24 09:26:49;;;;;;;1999.90;999.90;;;9.90;99.90;;;;;;4994670;28;20215;-81
2020/12/24 09:29:16;;;;;;;1999.90;999.90;;;10.00;99.90;;;;;;4994338;28;20235;-80
2020/12/24 09:31:55;;;;;;;1999.90;999.90;;;10.00;99.90;;;;;;4993707;28;20260;-81
2020/12/24 09:34:22;;;;;;;1999.90;999.90;;;10.10;99.90;;;;;;4994320;28;20278;-81
2020/12/24 09:36:49;;;;;;;1999.90;999.90;;;10.20;99.90;;;;;;4994231;28;20204;-80
2020/12/24 09:39:17;;;;;;;1999.90;999.90;;;10.30;99.90;;;;;;4993732;28;20740;-80
2020/12/24 09:41:45;;;;;;;1999.90;999.90;;;10.30;99.90;;;;;;4994588;28;20220;-80
2020/12/24 09:44:13;;;;;;;1999.90;999.90;;;10.50;99.90;;;;;;4993523;28;20613;-81
2020/12/24 09:46:41;;;;;;;1999.90;999.90;;;10.50;99.90;;;;;;4993297;28;20252;-79
2020/12/24 09:49:08;;;;;;;1999.90;999.90;;;10.60;99.90;;;;;;4991018;28;20231;-81
2020/12/24 09:51:36;;;;;;;1999.90;999.90;;;10.70;99.90;;;;;;4993689;28;20319;-82
2020/12/24 09:54:04;;;;;;;1999.90;999.90;;;10.70;99.90;;;;;;4993558;28;20204;-82
2020/12/24 09:56:32;;;;;;;1999.90;999.90;;;10.70;99.90;;;;;;4999923;28;20226;-81
2020/12/24 09:58:59;;;;;;;1999.90;999.90;;;10.70;99.90;;;;;;5003509;28;20219;-81
2020/12/24 10:01:26;;;;;;;1999.90;999.90;;;10.70;99.90;;;;;;5003734;28;20239;-79
2020/12/24 10:07:41;;;;;;;1999.90;999.90;;;10.50;99.90;;;;;;4975999;28;20223;-80
2020/12/24 10:10:08;;;;;;;1999.90;999.90;;;10.60;99.90;;;;;;4979591;28;20201;-84
2020/12/24 10:12:35;;;;;;;1999.90;999.90;;;10.50;99.90;;;;;;4981199;28;20224;-79
2020/12/24 10:15:02;;;;;;;1999.90;999.90;;;10.50;99.90;;;;;;4978131;28;20558;-85
2020/12/24 10:17:30;;;;;;;1999.90;999.90;;;10.50;99.90;;;;;;4977115;28;20287;-76
2020/12/24 10:19:57;;;;;;;1999.90;999.90;;;10.60;99.90;;;;;;4975293;28;20208;-78
2020/12/24 10:22:24;;;;;;;1999.90;999.90;;;10.70;99.90;;;;;;4983870;28;20274;-79
2020/12/24 10:24:52;;;;;;;1999.90;999.90;;;10.80;99.90;;;;;;4998218;28;20251;-79
2020/12/24 10:27:19;;;;;;;1999.90;999.90;;;10.70;99.90;;;;;;4994901;28;20251;-81
2020/12/24 10:29:46;;;;;;;1999.90;999.90;;;10.60;99.90;;;;;;4995286;28;20200;-82
2020/12/24 10:32:12;;;;;;;1999.90;999.90;;;10.70;99.90;;;;;;4996560;28;20282;-82
2020/12/24 10:34:40;;;;;;;1999.90;999.90;;;10.70;99.90;;;;;;4994929;28;20200;-81
2020/12/24 10:37:07;;;;;;;1999.90;999.90;;;10.70;99.90;;;;;;4995046;28;20200;-82
2020/12/24 10:39:34;;;;;;;1999.90;999.90;;;10.70;99.90;;;;;;4994500;28;20227;-81
2020/12/24 10:42:01;;;;;;;1999.90;999.90;;;10.70;99.90;;;;;;4995507;28;20208;-82
2020/12/24 10:44:28;;;;;;;1999.90;999.90;;;10.60;99.90;;;;;;4994871;28;20204;-81
2020/12/24 10:46:56;;;;;;;1999.90;999.90;;;10.60;99.90;;;;;;4995131;28;20208;-80
2020/12/24 10:49:23;;;;;;;1999.90;999.90;;;10.60;99.90;;;;;;4993624;28;20249;-84
2020/12/24 10:51:51;;;;;;;1999.90;999.90;;;10.60;99.90;;;;;;4994671;28;20314;-80
2020/12/24 10:54:18;;;;;;;1999.90;999.90;;;10.70;99.90;;;;;;4994292;28;20208;-84
2020/12/24 10:56:46;;;;;;;1999.90;999.90;;;10.70;99.90;;;;;;4994007;28;20200;-83
2020/12/24 10:59:13;;;;;;;1999.90;999.90;;;10.70;99.90;;;;;;4993169;28;20720;-80
2020/12/24 11:01:45;;;;;;;1999.90;999.90;;;10.60;99.90;;;;;;4994321;28;20232;-80
2020/12/24 11:04:12;;;;;;;1999.90;999.90;;;10.70;99.90;;;;;;4995150;28;20577;-79
2020/12/24 11:06:42;;;;;;;1999.90;999.90;;;10.70;99.90;;;;;;4988343;28;20211;-80
2020/12/24 11:09:10;;;;;;;1999.90;999.90;;;10.70;99.90;;;;;;4991355;28;20255;-80
2020/12/24 11:11:37;;;;;;;1999.90;999.90;;;10.70;99.90;;;;;;4993466;28;20253;-80
2020/12/24 11:14:05;;;;;;;1999.90;999.90;;;10.60;99.90;;;;;;4993681;28;20212;-79
2020/12/24 11:16:32;;;;;;;1999.90;999.90;;;10.60;99.90;;;;;;4995753;28;20262;-79
2020/12/24 11:18:59;;;;;;;1999.90;999.90;;;10.60;99.90;;;;;;4994855;28;20203;-80
2020/12/24 11:21:30;;;;;;;1999.90;999.90;;;10.70;99.90;;;;;;4994520;28;20274;-78
2020/12/24 11:24:04;;;;;;;1999.90;999.90;;;10.70;99.90;;;;;;4996605;28;20247;-78
2020/12/24 11:26:33;;;;;;;1999.90;999.90;;;10.80;99.90;;;;;;4984038;28;20215;-80
2020/12/24 11:29:00;;;;;;;1999.90;999.90;;;10.80;99.90;;;;;;4988832;28;20254;-83
2020/12/24 11:31:28;;;;;;;1999.90;999.90;;;11.00;99.90;;;;;;4990217;28;20216;-83
2020/12/24 11:33:56;;;;;;;1999.90;999.90;;;11.10;99.90;;;;;;4996819;28;20193;-83
2020/12/24 11:36:24;;;;;;;1999.90;999.90;;;11.20;99.90;;;;;;4998667;28;20267;-82
2020/12/24 11:38:51;;;;;;;1999.90;999.90;;;11.20;99.90;;;;;;4979705;28;20278;-83
2020/12/24 11:41:19;;;;;;;1999.90;999.90;;;11.20;99.90;;;;;;4995499;28;20220;-81
2020/12/24 11:43:48;;;;;;;1999.90;999.90;;;11.10;99.90;;;;;;4999844;28;20287;-82
2020/12/24 11:46:16;;;;;;;1999.90;999.90;;;11.00;99.90;;;;;;4998702;28;20247;-81
2020/12/24 11:48:43;;;;;;;1999.90;999.90;;;10.80;99.90;;;;;;4998503;28;20661;-82
2020/12/24 11:51:12;;;;;;;1999.90;999.90;;;10.80;99.90;;;;;;4998196;28;20220;-81
2020/12/24 11:53:41;;;;;;;1999.90;999.90;;;10.90;99.90;;;;;;5000050;28;20239;-82
2020/12/24 11:56:12;;;;;;;1999.90;999.90;;;10.90;99.90;;;;;;4999487;28;20204;-82
2020/12/24 11:58:39;;;;;;;1999.90;999.90;;;10.80;99.90;;;;;;4998703;28;20228;-81
2020/12/24 12:01:07;;;;;;;1999.90;999.90;;;10.80;99.90;;;;;;5000076;28;20243;-82
2020/12/24 12:03:35;;;;;;;1999.90;999.90;;;10.70;99.90;;;;;;4998941;28;20196;-82
2020/12/24 12:06:04;;;;;;;1999.90;999.90;;;10.50;99.90;;;;;;4999079;28;20212;-83
2020/12/24 12:08:30;;;;;;;1999.90;999.90;;;10.50;99.90;;;;;;4999212;28;20262;-81
2020/12/24 12:11:00;;;;;;;1999.90;999.90;;;10.60;99.90;;;;;;5000239;28;20238;-84
2020/12/24 12:13:28;;;;;;;1999.90;999.90;;;10.60;99.90;;;;;;4998647;28;20431;-83